THY6MG EDDF-LTFM
Flight info
| Callsign | THY6MG |
|---|---|
| Flight time | 2h 21m |
| Altitude | 35000 |
| Route | CINDY8S/18 CINDY Z74 HAREM DCT ASLEP DCT TAKUT DCT DINKU/N0455F310 L603 BESNI/N0464F350 L605 MIQ DCT ALUTU DCT BIBAG L605 ESEGA DCT VELOM DCT GOTAR DCT BABIT DCT ESIRI DCT ETIDA T390 RILEX RILEX1A |
| Aircraft | B77W/H-SDE1E2E3FGHIJ2J3J4J5M1RWXY/LB1D1 |
Departure
| Time | 2026-05-06 16:47 |
|---|---|
| Airport | Frankfurt Main Airport (EDDF) |
Arrival
| Time | 2026-05-06 19:08 |
|---|---|
| Airport | İstanbul Airport (LTFM) |
| Time | Latitude | Longitude | Altitude | Speed | Heading |
|---|---|---|---|---|---|
| 2026-05-06 16:14 | 50.04762 | 8.57756 | 368 ft | 0 kts | 271° |
| 2026-05-06 16:36 | 50.04762 | 8.57766 | 368 ft | 3 kts | 271° |
| 2026-05-06 16:36 | 50.04763 | 8.57835 | 368 ft | 9 kts | 245° |
| 2026-05-06 16:36 | 50.04825 | 8.57873 | 365 ft | 3 kts | 144° |
| 2026-05-06 16:37 | 50.04826 | 8.57871 | 365 ft | 0 kts | 140° |
| 2026-05-06 16:40 | 50.04824 | 8.57874 | 365 ft | 4 kts | 141° |
| 2026-05-06 16:40 | 50.04745 | 8.57917 | 366 ft | 15 kts | 189° |
| 2026-05-06 16:40 | 50.04683 | 8.57797 | 370 ft | 15 kts | 248° |
| 2026-05-06 16:41 | 50.04646 | 8.57647 | 366 ft | 15 kts | 249° |
| 2026-05-06 16:41 | 50.04610 | 8.57496 | 369 ft | 15 kts | 250° |
| 2026-05-06 16:41 | 50.04573 | 8.57341 | 368 ft | 18 kts | 250° |
| 2026-05-06 16:41 | 50.04518 | 8.57105 | 366 ft | 29 kts | 250° |
| 2026-05-06 16:42 | 50.04435 | 8.56762 | 369 ft | 39 kts | 250° |
| 2026-05-06 16:42 | 50.04344 | 8.56380 | 367 ft | 35 kts | 249° |
| 2026-05-06 16:42 | 50.04266 | 8.56051 | 369 ft | 30 kts | 250° |
| 2026-05-06 16:42 | 50.04192 | 8.55747 | 369 ft | 30 kts | 248° |
| 2026-05-06 16:43 | 50.04120 | 8.55446 | 367 ft | 30 kts | 250° |
| 2026-05-06 16:43 | 50.04049 | 8.55147 | 367 ft | 30 kts | 250° |
| 2026-05-06 16:43 | 50.03978 | 8.54843 | 368 ft | 30 kts | 250° |
| 2026-05-06 16:43 | 50.03908 | 8.54538 | 368 ft | 30 kts | 248° |
| 2026-05-06 16:44 | 50.03810 | 8.54253 | 367 ft | 30 kts | 242° |
| 2026-05-06 16:44 | 50.03735 | 8.53951 | 369 ft | 30 kts | 250° |
| 2026-05-06 16:44 | 50.03650 | 8.53599 | 365 ft | 45 kts | 248° |
| 2026-05-06 16:44 | 50.03529 | 8.53101 | 368 ft | 48 kts | 250° |
| 2026-05-06 16:45 | 50.03441 | 8.52758 | 369 ft | 16 kts | 246° |
| 2026-05-06 16:45 | 50.03423 | 8.52692 | 370 ft | 0 kts | 246° |
| 2026-05-06 16:45 | 50.03418 | 8.52676 | 369 ft | 6 kts | 246° |
| 2026-05-06 16:45 | 50.03386 | 8.52581 | 372 ft | 9 kts | 221° |
| 2026-05-06 16:46 | 50.03297 | 8.52592 | 369 ft | 15 kts | 167° |
| 2026-05-06 16:46 | 50.03224 | 8.52596 | 366 ft | 10 kts | 179° |
| 2026-05-06 16:46 | 50.03088 | 8.52598 | 363 ft | 33 kts | 180° |
| 2026-05-06 16:46 | 50.02672 | 8.52599 | 369 ft | 107 kts | 180° |
| 2026-05-06 16:47 | 50.01661 | 8.52608 | 371 ft | 177 kts | 180° |
| 2026-05-06 16:47 | 50.00191 | 8.52636 | 1129 ft | 220 kts | 179° |
| 2026-05-06 16:47 | 49.98735 | 8.52701 | 3033 ft | 203 kts | 181° |
| 2026-05-06 16:47 | 49.97240 | 8.52682 | 3389 ft | 224 kts | 177° |
| 2026-05-06 16:48 | 49.95898 | 8.53553 | 3552 ft | 208 kts | 130° |
| 2026-05-06 16:48 | 49.95178 | 8.55644 | 3962 ft | 233 kts | 113° |
| 2026-05-06 16:48 | 49.94519 | 8.57984 | 4013 ft | 242 kts | 117° |
| 2026-05-06 16:48 | 49.93989 | 8.60468 | 4332 ft | 251 kts | 96° |
| 2026-05-06 16:49 | 49.93980 | 8.63280 | 4937 ft | 269 kts | 93° |
| 2026-05-06 16:49 | 49.93889 | 8.66181 | 6022 ft | 268 kts | 96° |
| 2026-05-06 16:49 | 49.93568 | 8.69063 | 6707 ft | 281 kts | 116° |
| 2026-05-06 16:49 | 49.92346 | 8.71356 | 7650 ft | 276 kts | 146° |
| 2026-05-06 16:50 | 49.90745 | 8.73022 | 8611 ft | 280 kts | 147° |
| 2026-05-06 16:50 | 49.89145 | 8.74702 | 9768 ft | 278 kts | 145° |
| 2026-05-06 16:50 | 49.87792 | 8.76871 | 10473 ft | 287 kts | 122° |
| 2026-05-06 16:50 | 49.87155 | 8.78710 | 10788 ft | 301 kts | 118° |
| 2026-05-06 16:51 | 49.85752 | 8.82822 | 10832 ft | 351 kts | 120° |
| 2026-05-06 16:51 | 49.84548 | 8.86209 | 10820 ft | 362 kts | 120° |
| 2026-05-06 16:51 | 49.83313 | 8.89636 | 11190 ft | 368 kts | 120° |
| 2026-05-06 16:51 | 49.82052 | 8.93115 | 12220 ft | 372 kts | 121° |
| 2026-05-06 16:52 | 49.80775 | 8.96631 | 13307 ft | 377 kts | 121° |
| 2026-05-06 16:52 | 49.79481 | 9.00189 | 14255 ft | 382 kts | 121° |
| 2026-05-06 16:52 | 49.78172 | 9.03782 | 15221 ft | 386 kts | 121° |
| 2026-05-06 16:52 | 49.76845 | 9.07414 | 16180 ft | 390 kts | 122° |
| 2026-05-06 16:53 | 49.75699 | 9.11245 | 17045 ft | 398 kts | 110° |
| 2026-05-06 16:53 | 49.75081 | 9.15409 | 17894 ft | 405 kts | 104° |
| 2026-05-06 16:53 | 49.74273 | 9.19560 | 18546 ft | 406 kts | 120° |
| 2026-05-06 16:53 | 49.72604 | 9.23035 | 19246 ft | 403 kts | 136° |
| 2026-05-06 16:54 | 49.70633 | 9.26160 | 20022 ft | 408 kts | 137° |
| 2026-05-06 16:54 | 49.68680 | 9.29378 | 20818 ft | 414 kts | 135° |
| 2026-05-06 16:54 | 49.66747 | 9.32715 | 21609 ft | 419 kts | 134° |
| 2026-05-06 16:54 | 49.64810 | 9.36113 | 22358 ft | 425 kts | 134° |
| 2026-05-06 16:55 | 49.62988 | 9.39756 | 23055 ft | 434 kts | 126° |
| 2026-05-06 16:55 | 49.61487 | 9.43770 | 23703 ft | 442 kts | 120° |
| 2026-05-06 16:55 | 49.60255 | 9.48140 | 24340 ft | 449 kts | 112° |
| 2026-05-06 16:55 | 49.59276 | 9.52738 | 24964 ft | 454 kts | 111° |
| 2026-05-06 16:56 | 49.58323 | 9.57402 | 25573 ft | 458 kts | 111° |
| 2026-05-06 16:56 | 49.57356 | 9.62089 | 26189 ft | 462 kts | 111° |
| 2026-05-06 16:56 | 49.56363 | 9.66802 | 26787 ft | 464 kts | 111° |
| 2026-05-06 16:56 | 49.55347 | 9.71544 | 27443 ft | 467 kts | 112° |
| 2026-05-06 16:57 | 49.54315 | 9.76292 | 28032 ft | 470 kts | 113° |
| 2026-05-06 16:57 | 49.53063 | 9.80949 | 28588 ft | 470 kts | 120° |
| 2026-05-06 16:57 | 49.51503 | 9.85297 | 29147 ft | 471 kts | 126° |
| 2026-05-06 16:57 | 49.49662 | 9.89460 | 29638 ft | 471 kts | 131° |
| 2026-05-06 16:58 | 49.47593 | 9.93374 | 30032 ft | 474 kts | 133° |
| 2026-05-06 16:58 | 49.45476 | 9.97289 | 30387 ft | 478 kts | 133° |
| 2026-05-06 16:58 | 49.43353 | 10.01235 | 30853 ft | 478 kts | 133° |
| 2026-05-06 16:58 | 49.41257 | 10.05177 | 31421 ft | 476 kts | 133° |
| 2026-05-06 16:59 | 49.39177 | 10.09111 | 31985 ft | 474 kts | 133° |
| 2026-05-06 16:59 | 49.37101 | 10.13036 | 32505 ft | 473 kts | 134° |
| 2026-05-06 16:59 | 49.35023 | 10.16945 | 32987 ft | 473 kts | 134° |
| 2026-05-06 16:59 | 49.32970 | 10.20794 | 33472 ft | 472 kts | 134° |
| 2026-05-06 17:00 | 49.30896 | 10.24675 | 33969 ft | 470 kts | 134° |
| 2026-05-06 17:00 | 49.28825 | 10.28547 | 34343 ft | 470 kts | 134° |
| 2026-05-06 17:00 | 49.26748 | 10.32427 | 34664 ft | 471 kts | 134° |
| 2026-05-06 17:00 | 49.24663 | 10.36314 | 34834 ft | 475 kts | 134° |
| 2026-05-06 17:01 | 49.22485 | 10.40098 | 34816 ft | 472 kts | 139° |
| 2026-05-06 17:01 | 49.18581 | 10.45850 | 34824 ft | 465 kts | 141° |
| 2026-05-06 17:02 | 49.13184 | 10.53805 | 34829 ft | 464 kts | 140° |
| 2026-05-06 17:02 | 49.08565 | 10.60669 | 34841 ft | 464 kts | 140° |
| 2026-05-06 17:03 | 49.04706 | 10.66379 | 34807 ft | 466 kts | 140° |
| 2026-05-06 17:03 | 49.00029 | 10.73245 | 34820 ft | 468 kts | 140° |
| 2026-05-06 17:04 | 48.95330 | 10.80122 | 34804 ft | 469 kts | 140° |
| 2026-05-06 17:04 | 48.90622 | 10.87004 | 34795 ft | 469 kts | 140° |
| 2026-05-06 17:05 | 48.85958 | 10.93840 | 34770 ft | 469 kts | 140° |
| 2026-05-06 17:05 | 48.81268 | 11.00703 | 34742 ft | 468 kts | 140° |
| 2026-05-06 17:06 | 48.76570 | 11.07551 | 34770 ft | 468 kts | 140° |
| 2026-05-06 17:06 | 48.71874 | 11.14373 | 34783 ft | 469 kts | 140° |
| 2026-05-06 17:07 | 48.67191 | 11.21270 | 34772 ft | 471 kts | 135° |
| 2026-05-06 17:07 | 48.63573 | 11.29509 | 34762 ft | 479 kts | 119° |
| 2026-05-06 17:08 | 48.61339 | 11.39034 | 34750 ft | 483 kts | 110° |
| 2026-05-06 17:08 | 48.59375 | 11.48737 | 34758 ft | 483 kts | 111° |
| 2026-05-06 17:09 | 48.57312 | 11.58388 | 34768 ft | 484 kts | 111° |
| 2026-05-06 17:09 | 48.55703 | 11.68226 | 34787 ft | 487 kts | 105° |
| 2026-05-06 17:10 | 48.54301 | 11.78242 | 34779 ft | 488 kts | 105° |
| 2026-05-06 17:10 | 48.52860 | 11.88257 | 34793 ft | 489 kts | 105° |
| 2026-05-06 17:11 | 48.51384 | 11.98271 | 34794 ft | 489 kts | 105° |
| 2026-05-06 17:11 | 48.49900 | 12.08284 | 34779 ft | 489 kts | 105° |
| 2026-05-06 17:12 | 48.48411 | 12.18222 | 34741 ft | 489 kts | 106° |
| 2026-05-06 17:12 | 48.46895 | 12.28227 | 34745 ft | 490 kts | 106° |
| 2026-05-06 17:13 | 48.45371 | 12.38237 | 34730 ft | 491 kts | 106° |
| 2026-05-06 17:13 | 48.43837 | 12.48259 | 34719 ft | 491 kts | 106° |
| 2026-05-06 17:14 | 48.42293 | 12.58291 | 34709 ft | 491 kts | 106° |
| 2026-05-06 17:14 | 48.40743 | 12.68307 | 34700 ft | 492 kts | 106° |
| 2026-05-06 17:15 | 48.39042 | 12.78182 | 34698 ft | 489 kts | 112° |
| 2026-05-06 17:15 | 48.36769 | 12.87791 | 34700 ft | 488 kts | 113° |
| 2026-05-06 17:16 | 48.34472 | 12.97402 | 34701 ft | 488 kts | 113° |
| 2026-05-06 17:16 | 48.33335 | 13.02232 | 34804 ft | 490 kts | 116° |
| 2026-05-06 17:16 | 48.32198 | 13.07071 | 34744 ft | 494 kts | 116° |
| 2026-05-06 17:17 | 48.29911 | 13.16777 | 34700 ft | 498 kts | 116° |
| 2026-05-06 17:17 | 48.27599 | 13.26597 | 34686 ft | 500 kts | 116° |
| 2026-05-06 17:18 | 48.25283 | 13.36453 | 34684 ft | 501 kts | 116° |
| 2026-05-06 17:18 | 48.22942 | 13.46273 | 34675 ft | 497 kts | 118° |
| 2026-05-06 17:19 | 48.19902 | 13.55327 | 34676 ft | 483 kts | 130° |
| 2026-05-06 17:19 | 48.16230 | 13.63739 | 34677 ft | 482 kts | 130° |
| 2026-05-06 17:20 | 48.12575 | 13.72127 | 34677 ft | 481 kts | 130° |
| 2026-05-06 17:20 | 48.08946 | 13.80519 | 34668 ft | 480 kts | 130° |
| 2026-05-06 17:21 | 48.05348 | 13.88851 | 34679 ft | 480 kts | 130° |
| 2026-05-06 17:21 | 48.01725 | 13.97213 | 34687 ft | 480 kts | 130° |
| 2026-05-06 17:22 | 47.98092 | 14.05573 | 34694 ft | 480 kts | 130° |
| 2026-05-06 17:22 | 47.94450 | 14.13922 | 34670 ft | 481 kts | 130° |
| 2026-05-06 17:23 | 47.90817 | 14.22226 | 34693 ft | 482 kts | 130° |
| 2026-05-06 17:23 | 47.87153 | 14.30579 | 34696 ft | 482 kts | 130° |
| 2026-05-06 17:24 | 47.83480 | 14.38926 | 34712 ft | 483 kts | 130° |
| 2026-05-06 17:24 | 47.79793 | 14.47274 | 34719 ft | 482 kts | 131° |
| 2026-05-06 17:25 | 47.76139 | 14.55544 | 34776 ft | 483 kts | 130° |
| 2026-05-06 17:25 | 47.72412 | 14.63911 | 34743 ft | 489 kts | 130° |
| 2026-05-06 17:26 | 47.68645 | 14.72362 | 34771 ft | 491 kts | 130° |
| 2026-05-06 17:26 | 47.64865 | 14.80830 | 34772 ft | 492 kts | 130° |
| 2026-05-06 17:27 | 47.61090 | 14.89269 | 34790 ft | 490 kts | 130° |
| 2026-05-06 17:27 | 47.57340 | 14.97600 | 34797 ft | 489 kts | 130° |
| 2026-05-06 17:28 | 47.53587 | 15.05926 | 34752 ft | 484 kts | 130° |
| 2026-05-06 17:28 | 47.51720 | 15.10049 | 34871 ft | 482 kts | 130° |
| 2026-05-06 17:28 | 47.49846 | 15.14183 | 34815 ft | 486 kts | 130° |
| 2026-05-06 17:29 | 47.46071 | 15.22498 | 34809 ft | 488 kts | 129° |
| 2026-05-06 17:29 | 47.42311 | 15.30764 | 34830 ft | 487 kts | 129° |
| 2026-05-06 17:30 | 47.38529 | 15.39055 | 34810 ft | 487 kts | 129° |
| 2026-05-06 17:30 | 47.34747 | 15.47311 | 34846 ft | 485 kts | 129° |
| 2026-05-06 17:31 | 47.30964 | 15.55549 | 34833 ft | 485 kts | 129° |
| 2026-05-06 17:31 | 47.27174 | 15.63776 | 34854 ft | 486 kts | 129° |
| 2026-05-06 17:32 | 47.23394 | 15.71958 | 34860 ft | 486 kts | 129° |
| 2026-05-06 17:32 | 47.19579 | 15.80190 | 34842 ft | 487 kts | 129° |
| 2026-05-06 17:33 | 47.15761 | 15.88406 | 34841 ft | 487 kts | 129° |
| 2026-05-06 17:33 | 47.11932 | 15.96622 | 34851 ft | 487 kts | 129° |
| 2026-05-06 17:34 | 47.08099 | 16.04824 | 34849 ft | 488 kts | 129° |
| 2026-05-06 17:34 | 47.04279 | 16.12974 | 34849 ft | 488 kts | 129° |
| 2026-05-06 17:35 | 47.00428 | 16.21170 | 34859 ft | 488 kts | 128° |
| 2026-05-06 17:35 | 46.96972 | 16.29778 | 34859 ft | 492 kts | 123° |
| 2026-05-06 17:36 | 46.92089 | 16.42913 | 34859 ft | 492 kts | 123° |
| 2026-05-06 17:36 | 46.88792 | 16.51682 | 34859 ft | 492 kts | 123° |
| 2026-05-06 17:37 | 46.85480 | 16.60416 | 34853 ft | 490 kts | 123° |
| 2026-05-06 17:37 | 46.82189 | 16.69051 | 34863 ft | 489 kts | 123° |
| 2026-05-06 17:38 | 46.78876 | 16.77717 | 34870 ft | 489 kts | 123° |
| 2026-05-06 17:38 | 46.75562 | 16.86361 | 34859 ft | 488 kts | 123° |
| 2026-05-06 17:39 | 46.72244 | 16.94990 | 34877 ft | 487 kts | 123° |
| 2026-05-06 17:39 | 46.68950 | 17.03532 | 34884 ft | 486 kts | 123° |
| 2026-05-06 17:40 | 46.65636 | 17.12095 | 34879 ft | 486 kts | 123° |
| 2026-05-06 17:40 | 46.62314 | 17.20651 | 34887 ft | 485 kts | 123° |
| 2026-05-06 17:41 | 46.58988 | 17.29190 | 34879 ft | 485 kts | 123° |
| 2026-05-06 17:41 | 46.55662 | 17.37706 | 34886 ft | 485 kts | 123° |
| 2026-05-06 17:42 | 46.52344 | 17.46172 | 34886 ft | 485 kts | 123° |
| 2026-05-06 17:42 | 46.49002 | 17.54677 | 34888 ft | 485 kts | 123° |
| 2026-05-06 17:43 | 46.45652 | 17.63172 | 34892 ft | 486 kts | 124° |
| 2026-05-06 17:43 | 46.42290 | 17.71672 | 34894 ft | 486 kts | 124° |
| 2026-05-06 17:44 | 46.38937 | 17.80122 | 34898 ft | 487 kts | 123° |
| 2026-05-06 17:44 | 46.35552 | 17.88628 | 34903 ft | 487 kts | 123° |
| 2026-05-06 17:45 | 46.32159 | 17.97128 | 34896 ft | 488 kts | 124° |
| 2026-05-06 17:45 | 46.28758 | 18.05621 | 34911 ft | 488 kts | 124° |
| 2026-05-06 17:46 | 46.25345 | 18.14117 | 34918 ft | 489 kts | 124° |
| 2026-05-06 17:46 | 46.21948 | 18.22548 | 34925 ft | 489 kts | 124° |
| 2026-05-06 17:47 | 46.18520 | 18.31029 | 34919 ft | 489 kts | 124° |
| 2026-05-06 17:47 | 46.15085 | 18.39503 | 34924 ft | 489 kts | 124° |
| 2026-05-06 17:48 | 46.11644 | 18.47968 | 34928 ft | 489 kts | 124° |
| 2026-05-06 17:48 | 46.08198 | 18.56417 | 34920 ft | 489 kts | 124° |
| 2026-05-06 17:49 | 46.04769 | 18.64799 | 34918 ft | 489 kts | 124° |
| 2026-05-06 17:49 | 46.01309 | 18.73230 | 34905 ft | 489 kts | 124° |
| 2026-05-06 17:50 | 45.97852 | 18.81634 | 34905 ft | 489 kts | 124° |
| 2026-05-06 17:50 | 45.94380 | 18.90035 | 34880 ft | 488 kts | 125° |
| 2026-05-06 17:51 | 45.90362 | 18.97796 | 34898 ft | 482 kts | 135° |
| 2026-05-06 17:51 | 45.85936 | 19.04957 | 34904 ft | 483 kts | 135° |
| 2026-05-06 17:52 | 45.81478 | 19.12174 | 34905 ft | 484 kts | 135° |
| 2026-05-06 17:52 | 45.77031 | 19.19422 | 34892 ft | 484 kts | 135° |
| 2026-05-06 17:53 | 45.72579 | 19.26690 | 34893 ft | 486 kts | 135° |
| 2026-05-06 17:53 | 45.68107 | 19.33975 | 34907 ft | 488 kts | 135° |
| 2026-05-06 17:54 | 45.63652 | 19.41212 | 34910 ft | 489 kts | 135° |
| 2026-05-06 17:54 | 45.59151 | 19.48501 | 34908 ft | 490 kts | 135° |
| 2026-05-06 17:55 | 45.54645 | 19.55779 | 34909 ft | 489 kts | 135° |
| 2026-05-06 17:55 | 45.50131 | 19.63053 | 34906 ft | 489 kts | 135° |
| 2026-05-06 17:56 | 45.45652 | 19.70249 | 34902 ft | 488 kts | 135° |
| 2026-05-06 17:56 | 45.41160 | 19.77450 | 34881 ft | 486 kts | 135° |
| 2026-05-06 17:57 | 45.36653 | 19.84651 | 34901 ft | 489 kts | 135° |
| 2026-05-06 17:57 | 45.32114 | 19.91885 | 34908 ft | 491 kts | 135° |
| 2026-05-06 17:58 | 45.27584 | 19.99090 | 34906 ft | 492 kts | 135° |
| 2026-05-06 17:58 | 45.23023 | 20.06326 | 34886 ft | 492 kts | 135° |
| 2026-05-06 17:59 | 45.18461 | 20.13543 | 34913 ft | 491 kts | 135° |
| 2026-05-06 17:59 | 45.13900 | 20.20740 | 34911 ft | 490 kts | 135° |
| 2026-05-06 18:00 | 45.09342 | 20.27911 | 34911 ft | 490 kts | 135° |
| 2026-05-06 18:00 | 45.04815 | 20.35017 | 34899 ft | 489 kts | 135° |
| 2026-05-06 18:01 | 45.00249 | 20.42166 | 34912 ft | 490 kts | 135° |
| 2026-05-06 18:01 | 44.95674 | 20.49310 | 34913 ft | 491 kts | 135° |
| 2026-05-06 18:02 | 44.91092 | 20.56449 | 34914 ft | 491 kts | 135° |
| 2026-05-06 18:02 | 44.86527 | 20.63540 | 34906 ft | 492 kts | 135° |
| 2026-05-06 18:03 | 44.81925 | 20.70672 | 34916 ft | 492 kts | 135° |
| 2026-05-06 18:03 | 44.77311 | 20.77804 | 34915 ft | 493 kts | 135° |
| 2026-05-06 18:04 | 44.72691 | 20.84928 | 34915 ft | 493 kts | 135° |
| 2026-05-06 18:04 | 44.68064 | 20.92041 | 34908 ft | 493 kts | 135° |
| 2026-05-06 18:05 | 44.63465 | 20.99098 | 34922 ft | 493 kts | 135° |
| 2026-05-06 18:05 | 44.58823 | 21.06201 | 34914 ft | 494 kts | 135° |
| 2026-05-06 18:06 | 44.54176 | 21.13294 | 34920 ft | 494 kts | 135° |
| 2026-05-06 18:06 | 44.49521 | 21.20380 | 34925 ft | 494 kts | 135° |
| 2026-05-06 18:07 | 44.44861 | 21.27460 | 34810 ft | 496 kts | 135° |
| 2026-05-06 18:07 | 44.40213 | 21.34500 | 34846 ft | 494 kts | 135° |
| 2026-05-06 18:08 | 44.35562 | 21.41531 | 34929 ft | 493 kts | 135° |
| 2026-05-06 18:08 | 44.30894 | 21.48572 | 34944 ft | 494 kts | 134° |
| 2026-05-06 18:09 | 44.26231 | 21.55647 | 34955 ft | 496 kts | 134° |
| 2026-05-06 18:09 | 44.21591 | 21.62691 | 34954 ft | 497 kts | 134° |
| 2026-05-06 18:10 | 44.16909 | 21.69775 | 34956 ft | 497 kts | 134° |
| 2026-05-06 18:10 | 44.12215 | 21.76854 | 34955 ft | 497 kts | 134° |
| 2026-05-06 18:11 | 44.07516 | 21.83923 | 34964 ft | 498 kts | 134° |
| 2026-05-06 18:11 | 44.02811 | 21.90983 | 34960 ft | 498 kts | 134° |
| 2026-05-06 18:12 | 43.98134 | 21.97983 | 34957 ft | 497 kts | 134° |
| 2026-05-06 18:12 | 43.93427 | 22.05011 | 34961 ft | 497 kts | 134° |
| 2026-05-06 18:13 | 43.88718 | 22.12024 | 34959 ft | 497 kts | 134° |
| 2026-05-06 18:13 | 43.83997 | 22.19038 | 34956 ft | 497 kts | 134° |
| 2026-05-06 18:14 | 43.79309 | 22.25987 | 34962 ft | 497 kts | 134° |
| 2026-05-06 18:14 | 43.74584 | 22.32977 | 34965 ft | 497 kts | 134° |
| 2026-05-06 18:15 | 43.69966 | 22.40045 | 34954 ft | 492 kts | 129° |
| 2026-05-06 18:15 | 43.66218 | 22.47977 | 34965 ft | 498 kts | 117° |
| 2026-05-06 18:16 | 43.63112 | 22.56545 | 34970 ft | 504 kts | 117° |
| 2026-05-06 18:16 | 43.60004 | 22.65155 | 34966 ft | 499 kts | 117° |
| 2026-05-06 18:17 | 43.56888 | 22.73663 | 34977 ft | 496 kts | 117° |
| 2026-05-06 18:17 | 43.53755 | 22.82134 | 34981 ft | 496 kts | 117° |
| 2026-05-06 18:18 | 43.50605 | 22.90613 | 34982 ft | 499 kts | 117° |
| 2026-05-06 18:18 | 43.47452 | 22.99078 | 34990 ft | 501 kts | 117° |
| 2026-05-06 18:19 | 43.44263 | 23.07618 | 34986 ft | 503 kts | 117° |
| 2026-05-06 18:19 | 43.41054 | 23.16189 | 34985 ft | 504 kts | 117° |
| 2026-05-06 18:20 | 43.37838 | 23.24752 | 34986 ft | 505 kts | 117° |
| 2026-05-06 18:20 | 43.34610 | 23.33317 | 34979 ft | 504 kts | 117° |
| 2026-05-06 18:21 | 43.31404 | 23.41752 | 34977 ft | 502 kts | 117° |
| 2026-05-06 18:21 | 43.28185 | 23.50271 | 34990 ft | 503 kts | 117° |
| 2026-05-06 18:22 | 43.24949 | 23.58803 | 34986 ft | 505 kts | 117° |
| 2026-05-06 18:22 | 43.21696 | 23.67338 | 34980 ft | 505 kts | 117° |
| 2026-05-06 18:23 | 43.18434 | 23.75867 | 34976 ft | 506 kts | 117° |
| 2026-05-06 18:23 | 43.15184 | 23.84335 | 34975 ft | 505 kts | 117° |
| 2026-05-06 18:24 | 43.11906 | 23.92853 | 34983 ft | 505 kts | 117° |
| 2026-05-06 18:24 | 43.08629 | 24.01347 | 34980 ft | 505 kts | 117° |
| 2026-05-06 18:25 | 43.05341 | 24.09842 | 34984 ft | 506 kts | 117° |
| 2026-05-06 18:25 | 43.02063 | 24.18283 | 34979 ft | 506 kts | 117° |
| 2026-05-06 18:26 | 42.98761 | 24.26763 | 34987 ft | 506 kts | 117° |
| 2026-05-06 18:26 | 42.95447 | 24.35249 | 34985 ft | 506 kts | 117° |
| 2026-05-06 18:27 | 42.92128 | 24.43724 | 35002 ft | 507 kts | 117° |
| 2026-05-06 18:27 | 42.88820 | 24.52146 | 35004 ft | 507 kts | 117° |
| 2026-05-06 18:28 | 42.85482 | 24.60623 | 34994 ft | 508 kts | 117° |
| 2026-05-06 18:28 | 42.82136 | 24.69092 | 34992 ft | 508 kts | 117° |
| 2026-05-06 18:29 | 42.78781 | 24.77559 | 34988 ft | 507 kts | 117° |
| 2026-05-06 18:29 | 42.75447 | 24.85956 | 35007 ft | 508 kts | 117° |
| 2026-05-06 18:30 | 42.72079 | 24.94411 | 34999 ft | 509 kts | 117° |
| 2026-05-06 18:30 | 42.68701 | 25.02869 | 34997 ft | 509 kts | 117° |
| 2026-05-06 18:31 | 42.65351 | 25.11233 | 34985 ft | 492 kts | 117° |
| 2026-05-06 18:31 | 42.62081 | 25.19369 | 35016 ft | 498 kts | 117° |
| 2026-05-06 18:32 | 42.58738 | 25.27676 | 35020 ft | 511 kts | 117° |
| 2026-05-06 18:32 | 42.55318 | 25.36142 | 35007 ft | 510 kts | 117° |
| 2026-05-06 18:33 | 42.51911 | 25.44549 | 35003 ft | 508 kts | 117° |
| 2026-05-06 18:33 | 42.48505 | 25.52930 | 35008 ft | 507 kts | 117° |
| 2026-05-06 18:34 | 42.45117 | 25.61242 | 35003 ft | 507 kts | 117° |
| 2026-05-06 18:34 | 42.41702 | 25.69601 | 35008 ft | 508 kts | 117° |
| 2026-05-06 18:35 | 42.38266 | 25.77986 | 34996 ft | 510 kts | 117° |
| 2026-05-06 18:35 | 42.34820 | 25.86372 | 35013 ft | 511 kts | 117° |
| 2026-05-06 18:36 | 42.31360 | 25.94764 | 35017 ft | 512 kts | 117° |
| 2026-05-06 18:36 | 42.27915 | 26.03105 | 35012 ft | 513 kts | 117° |
| 2026-05-06 18:37 | 42.25020 | 26.10092 | 35013 ft | 513 kts | 117° |
| 2026-05-06 18:37 | 42.20935 | 26.19909 | 35034 ft | 513 kts | 116° |
| 2026-05-06 18:38 | 42.17436 | 26.28293 | 35016 ft | 513 kts | 117° |
| 2026-05-06 18:38 | 42.13951 | 26.36626 | 35004 ft | 514 kts | 117° |
| 2026-05-06 18:39 | 42.12196 | 26.40813 | 34870 ft | 514 kts | 117° |
| 2026-05-06 18:39 | 42.10452 | 26.44966 | 34753 ft | 505 kts | 117° |
| 2026-05-06 18:39 | 42.08724 | 26.49074 | 34244 ft | 502 kts | 116° |
| 2026-05-06 18:40 | 42.05309 | 26.57184 | 33242 ft | 494 kts | 116° |
| 2026-05-06 18:40 | 42.03623 | 26.61180 | 32777 ft | 489 kts | 116° |
| 2026-05-06 18:40 | 42.01948 | 26.65145 | 32310 ft | 485 kts | 116° |
| 2026-05-06 18:40 | 42.00292 | 26.69062 | 31863 ft | 480 kts | 116° |
| 2026-05-06 18:41 | 41.98647 | 26.72947 | 31415 ft | 476 kts | 116° |
| 2026-05-06 18:41 | 41.97032 | 26.76754 | 30986 ft | 473 kts | 116° |
| 2026-05-06 18:41 | 41.95365 | 26.80545 | 30570 ft | 470 kts | 117° |
| 2026-05-06 18:41 | 41.93667 | 26.84276 | 30178 ft | 466 kts | 118° |
| 2026-05-06 18:42 | 41.91980 | 26.87970 | 29651 ft | 462 kts | 118° |
| 2026-05-06 18:42 | 41.90321 | 26.91624 | 29252 ft | 456 kts | 118° |
| 2026-05-06 18:42 | 41.88683 | 26.95243 | 28847 ft | 451 kts | 118° |
| 2026-05-06 18:42 | 41.87060 | 26.98813 | 28455 ft | 445 kts | 118° |
| 2026-05-06 18:43 | 41.85456 | 27.02338 | 28078 ft | 441 kts | 117° |
| 2026-05-06 18:43 | 41.83864 | 27.05833 | 27667 ft | 436 kts | 117° |
| 2026-05-06 18:43 | 41.82312 | 27.09237 | 27284 ft | 432 kts | 117° |
| 2026-05-06 18:43 | 41.80754 | 27.12651 | 26935 ft | 427 kts | 117° |
| 2026-05-06 18:44 | 41.79215 | 27.16016 | 26679 ft | 421 kts | 117° |
| 2026-05-06 18:44 | 41.77684 | 27.19364 | 26435 ft | 421 kts | 117° |
| 2026-05-06 18:44 | 41.76079 | 27.22701 | 25711 ft | 432 kts | 122° |
| 2026-05-06 18:44 | 41.74295 | 27.25941 | 25226 ft | 432 kts | 124° |
| 2026-05-06 18:45 | 41.72484 | 27.29152 | 24785 ft | 431 kts | 123° |
| 2026-05-06 18:45 | 41.70678 | 27.32323 | 24311 ft | 425 kts | 128° |
| 2026-05-06 18:45 | 41.68432 | 27.34888 | 23873 ft | 427 kts | 148° |
| 2026-05-06 18:45 | 41.66660 | 27.36030 | 23591 ft | 426 kts | 161° |
| 2026-05-06 18:46 | 41.62855 | 27.37313 | 22950 ft | 419 kts | 167° |
| 2026-05-06 18:46 | 41.60024 | 27.38219 | 22498 ft | 417 kts | 166° |
| 2026-05-06 18:46 | 41.57220 | 27.39171 | 22065 ft | 414 kts | 166° |
| 2026-05-06 18:46 | 41.54491 | 27.40122 | 21650 ft | 411 kts | 165° |
| 2026-05-06 18:47 | 41.51733 | 27.41086 | 21204 ft | 409 kts | 165° |
| 2026-05-06 18:47 | 41.49003 | 27.42080 | 20757 ft | 402 kts | 160° |
| 2026-05-06 18:47 | 41.46587 | 27.43855 | 20339 ft | 395 kts | 137° |
| 2026-05-06 18:47 | 41.44813 | 27.46578 | 19963 ft | 385 kts | 117° |
| 2026-05-06 18:48 | 41.43780 | 27.49804 | 19596 ft | 375 kts | 100° |
| 2026-05-06 18:48 | 41.43375 | 27.53187 | 19215 ft | 366 kts | 88° |
| 2026-05-06 18:48 | 41.43622 | 27.56500 | 18826 ft | 354 kts | 71° |
| 2026-05-06 18:48 | 41.44289 | 27.59629 | 18488 ft | 350 kts | 70° |
| 2026-05-06 18:49 | 41.44935 | 27.62725 | 18072 ft | 348 kts | 70° |
| 2026-05-06 18:49 | 41.45558 | 27.65827 | 17690 ft | 345 kts | 71° |
| 2026-05-06 18:49 | 41.46160 | 27.68900 | 17322 ft | 341 kts | 71° |
| 2026-05-06 18:49 | 41.46750 | 27.71948 | 16971 ft | 338 kts | 71° |
| 2026-05-06 18:50 | 41.47326 | 27.74925 | 16618 ft | 334 kts | 71° |
| 2026-05-06 18:50 | 41.47903 | 27.77912 | 16291 ft | 331 kts | 71° |
| 2026-05-06 18:50 | 41.48474 | 27.80877 | 15952 ft | 329 kts | 71° |
| 2026-05-06 18:50 | 41.48968 | 27.83831 | 15604 ft | 326 kts | 79° |
| 2026-05-06 18:51 | 41.48782 | 27.86880 | 15120 ft | 338 kts | 103° |
| 2026-05-06 18:51 | 41.48178 | 27.88809 | 14832 ft | 344 kts | 116° |
| 2026-05-06 18:51 | 41.46599 | 27.91511 | 14388 ft | 347 kts | 137° |
| 2026-05-06 18:51 | 41.44690 | 27.93454 | 14041 ft | 345 kts | 142° |
| 2026-05-06 18:52 | 41.42736 | 27.95316 | 13660 ft | 345 kts | 143° |
| 2026-05-06 18:52 | 41.40778 | 27.97163 | 13250 ft | 344 kts | 143° |
| 2026-05-06 18:52 | 41.38830 | 27.99007 | 12875 ft | 342 kts | 142° |
| 2026-05-06 18:52 | 41.36904 | 28.00842 | 12505 ft | 340 kts | 142° |
| 2026-05-06 18:53 | 41.35006 | 28.02660 | 12103 ft | 340 kts | 142° |
| 2026-05-06 18:53 | 41.33095 | 28.04498 | 11715 ft | 338 kts | 142° |
| 2026-05-06 18:53 | 41.31197 | 28.06328 | 11363 ft | 336 kts | 142° |
| 2026-05-06 18:53 | 41.29308 | 28.08152 | 11015 ft | 335 kts | 142° |
| 2026-05-06 18:54 | 41.27432 | 28.09963 | 10684 ft | 332 kts | 142° |
| 2026-05-06 18:54 | 41.25566 | 28.11765 | 10361 ft | 330 kts | 142° |
| 2026-05-06 18:54 | 41.23714 | 28.13552 | 10047 ft | 328 kts | 142° |
| 2026-05-06 18:54 | 41.21880 | 28.15322 | 9759 ft | 324 kts | 142° |
| 2026-05-06 18:55 | 41.20081 | 28.17055 | 9613 ft | 315 kts | 142° |
| 2026-05-06 18:55 | 41.18333 | 28.18738 | 9403 ft | 308 kts | 142° |
| 2026-05-06 18:55 | 41.16627 | 28.20381 | 9103 ft | 306 kts | 142° |
| 2026-05-06 18:55 | 41.14925 | 28.22019 | 8910 ft | 299 kts | 142° |
| 2026-05-06 18:56 | 41.13268 | 28.23611 | 8712 ft | 293 kts | 142° |
| 2026-05-06 18:56 | 41.11630 | 28.25186 | 8418 ft | 291 kts | 142° |
| 2026-05-06 18:56 | 41.09991 | 28.26762 | 8099 ft | 291 kts | 142° |
| 2026-05-06 18:56 | 41.08353 | 28.28335 | 7775 ft | 290 kts | 142° |
| 2026-05-06 18:57 | 41.06722 | 28.29900 | 7479 ft | 289 kts | 143° |
| 2026-05-06 18:57 | 41.05096 | 28.31459 | 7169 ft | 288 kts | 143° |
| 2026-05-06 18:57 | 41.03476 | 28.33011 | 6899 ft | 286 kts | 143° |
| 2026-05-06 18:57 | 41.01867 | 28.34552 | 6609 ft | 285 kts | 143° |
| 2026-05-06 18:58 | 41.00272 | 28.36077 | 6400 ft | 280 kts | 143° |
| 2026-05-06 18:58 | 40.98764 | 28.37571 | 6256 ft | 268 kts | 136° |
| 2026-05-06 18:58 | 40.97778 | 28.39555 | 5964 ft | 258 kts | 104° |
| 2026-05-06 18:58 | 40.97534 | 28.41852 | 5708 ft | 249 kts | 86° |
| 2026-05-06 18:59 | 40.97541 | 28.44134 | 5392 ft | 249 kts | 86° |
| 2026-05-06 18:59 | 40.97544 | 28.46427 | 5073 ft | 249 kts | 87° |
| 2026-05-06 18:59 | 40.97544 | 28.48714 | 4797 ft | 248 kts | 88° |
| 2026-05-06 18:59 | 40.97390 | 28.50977 | 4446 ft | 248 kts | 99° |
| 2026-05-06 19:00 | 40.97011 | 28.53197 | 4168 ft | 247 kts | 102° |
| 2026-05-06 19:00 | 40.96626 | 28.55393 | 3918 ft | 244 kts | 102° |
| 2026-05-06 19:00 | 40.96263 | 28.57544 | 3632 ft | 243 kts | 101° |
| 2026-05-06 19:00 | 40.96017 | 28.59035 | 3320 ft | 248 kts | 101° |
| 2026-05-06 19:01 | 40.95863 | 28.61984 | 3014 ft | 237 kts | 87° |
| 2026-05-06 19:01 | 40.95916 | 28.64099 | 2991 ft | 226 kts | 87° |
| 2026-05-06 19:01 | 40.95969 | 28.66172 | 3004 ft | 224 kts | 84° |
| 2026-05-06 19:01 | 40.96446 | 28.68073 | 3025 ft | 220 kts | 51° |
| 2026-05-06 19:02 | 40.97566 | 28.69401 | 3034 ft | 220 kts | 30° |
| 2026-05-06 19:02 | 40.98903 | 28.70426 | 3044 ft | 224 kts | 27° |
| 2026-05-06 19:02 | 41.00319 | 28.71112 | 3023 ft | 216 kts | 5° |
| 2026-05-06 19:02 | 41.01767 | 28.71201 | 3033 ft | 211 kts | 359° |
| 2026-05-06 19:03 | 41.03231 | 28.71217 | 3023 ft | 210 kts | 358° |
| 2026-05-06 19:03 | 41.04684 | 28.71199 | 3028 ft | 209 kts | 358° |
| 2026-05-06 19:03 | 41.06141 | 28.71171 | 3020 ft | 209 kts | 358° |
| 2026-05-06 19:03 | 41.07583 | 28.71141 | 3000 ft | 206 kts | 358° |
| 2026-05-06 19:04 | 41.08957 | 28.71112 | 2989 ft | 193 kts | 358° |
| 2026-05-06 19:04 | 41.10292 | 28.71083 | 3066 ft | 191 kts | 357° |
| 2026-05-06 19:04 | 41.11596 | 28.71056 | 3009 ft | 185 kts | 357° |
| 2026-05-06 19:04 | 41.12869 | 28.71030 | 3033 ft | 179 kts | 357° |
| 2026-05-06 19:05 | 41.14087 | 28.71005 | 2779 ft | 170 kts | 357° |
| 2026-05-06 19:05 | 41.15238 | 28.70981 | 2555 ft | 163 kts | 358° |
| 2026-05-06 19:05 | 41.16355 | 28.70956 | 2373 ft | 161 kts | 357° |
| 2026-05-06 19:05 | 41.17484 | 28.70932 | 2163 ft | 159 kts | 358° |
| 2026-05-06 19:06 | 41.18553 | 28.70911 | 1942 ft | 149 kts | 358° |
| 2026-05-06 19:06 | 41.19579 | 28.70890 | 1751 ft | 150 kts | 359° |
| 2026-05-06 19:06 | 41.20614 | 28.70868 | 1541 ft | 147 kts | 359° |
| 2026-05-06 19:06 | 41.21630 | 28.70847 | 1342 ft | 145 kts | 359° |
| 2026-05-06 19:07 | 41.22634 | 28.70825 | 1138 ft | 143 kts | 0° |
| 2026-05-06 19:07 | 41.23308 | 28.70811 | 1018 ft | 143 kts | 1° |
| 2026-05-06 19:07 | 41.24625 | 28.70773 | 800 ft | 141 kts | 1° |
| 2026-05-06 19:07 | 41.25616 | 28.70751 | 575 ft | 142 kts | 2° |
| 2026-05-06 19:08 | 41.26576 | 28.70728 | 380 ft | 134 kts | 2° |
| 2026-05-06 19:08 | 41.27454 | 28.70724 | 314 ft | 114 kts | 359° |
| 2026-05-06 19:08 | 41.28124 | 28.70708 | 297 ft | 79 kts | 359° |
| 2026-05-06 19:08 | 41.28548 | 28.70700 | 274 ft | 44 kts | 360° |
| 2026-05-06 19:09 | 41.28845 | 28.70702 | 263 ft | 36 kts | 5° |
| 2026-05-06 19:09 | 41.29003 | 28.70765 | 260 ft | 33 kts | 25° |
| 2026-05-06 19:09 | 41.29085 | 28.70825 | 258 ft | 0 kts | 28° |
| 2026-05-06 19:09 | 41.29092 | 28.70829 | 258 ft | 2 kts | 28° |
| 2026-05-06 19:10 | 41.29115 | 28.70846 | 257 ft | 5 kts | 28° |
| 2026-05-06 19:10 | 41.29192 | 28.70902 | 255 ft | 22 kts | 31° |
| 2026-05-06 19:10 | 41.29238 | 28.71075 | 254 ft | 17 kts | 89° |
| 2026-05-06 19:10 | 41.29178 | 28.71161 | 256 ft | 13 kts | 173° |
| 2026-05-06 19:11 | 41.29086 | 28.71165 | 259 ft | 13 kts | 179° |
| 2026-05-06 19:11 | 41.29025 | 28.71167 | 261 ft | 13 kts | 179° |
| 2026-05-06 19:11 | 41.28928 | 28.71169 | 264 ft | 19 kts | 179° |
| 2026-05-06 19:11 | 41.28709 | 28.71173 | 273 ft | 35 kts | 179° |
| 2026-05-06 19:12 | 41.28532 | 28.71177 | 280 ft | 24 kts | 179° |
| 2026-05-06 19:12 | 41.28466 | 28.71178 | 282 ft | 1 kts | 179° |
| 2026-05-06 19:12 | 41.28460 | 28.71178 | 283 ft | 1 kts | 179° |
| 2026-05-06 19:12 | 41.28444 | 28.71179 | 283 ft | 11 kts | 179° |
| 2026-05-06 19:13 | 41.28350 | 28.71181 | 287 ft | 6 kts | 179° |